This is the latest recevied weather packets stored in our database for station/object E24TVS-1. If no packets are shown the sender has not sent any weather packets the latest 10 day(s).
| Time | Temp. | Humidity | Pressure | Rain* | Wind** | Luminosity | Snow |
|---|---|---|---|---|---|---|---|
| 1778199233 | 30.56° C | 76% | 990 hPa | - | - | 0 W/m² | - |
| 1778198611 | 30.56° C | 75% | 990 hPa | - | - | 0 W/m² | - |
| 1778197987 | 30.56° C | 75% | 990 hPa | - | - | 0 W/m² | - |
| 1778197365 | 30.56° C | 75% | 990 hPa | - | - | 0 W/m² | - |
| 1778196742 | 30.56° C | 75% | 990 hPa | - | - | 0 W/m² | - |
| 1778196119 | 30.56° C | 76% | 990 hPa | - | - | 0 W/m² | - |
| 1778195496 | 29.44° C | 81% | 990 hPa | - | - | 0 W/m² | - |
| 1778194873 | 29.44° C | 81% | 990 hPa | - | - | 0 W/m² | - |
| 1778194250 | 29.44° C | 80% | 990 hPa | - | - | 0 W/m² | - |
| 1778193628 | 29.44° C | 80% | 989 hPa | - | - | 0 W/m² | - |
| 1778193005 | 30° C | 78% | 989 hPa | - | - | 0 W/m² | - |
| 1778192383 | 29.44° C | 79% | 989 hPa | - | - | 0 W/m² | - |
| 1778191760 | 30.56° C | 74% | 989 hPa | - | - | 0 W/m² | - |
| 1778191137 | 30.56° C | 74% | 989 hPa | - | - | 0 W/m² | - |
| 1778190515 | 31.11° C | 73% | 989 hPa | - | - | 0 W/m² | - |
| 1778189893 | 31.11° C | 71% | 989 hPa | - | - | 0 W/m² | - |
| 1778189270 | 31.11° C | 71% | 989 hPa | - | - | 0 W/m² | - |
| 1778188648 | 31.11° C | 72% | 989 hPa | - | - | 0 W/m² | - |
| 1778188026 | 31.11° C | 73% | 989 hPa | - | - | 0 W/m² | - |
| 1778187404 | 30.56° C | 74% | 988 hPa | - | - | 0 W/m² | - |
| 1778186782 | 29.44° C | 78% | 988 hPa | - | - | 0 W/m² | - |
| 1778186159 | 29.44° C | 79% | 988 hPa | - | - | 0 W/m² | - |
| 1778185536 | 29.44° C | 79% | 988 hPa | - | - | 0 W/m² | - |
| 1778184913 | 29.44° C | 77% | 988 hPa | - | - | 0 W/m² | - |
| 1778184291 | 29.44° C | 75% | 988 hPa | - | - | 0 W/m² | - |
* Rain since midnight (hover to see other rain measurements)
** Current wind speed in m/s (hover to see current wind gust speed)